createdAt,value
2019-01-05T00:00:58.519Z,0
2019-01-05T00:02:08.661Z,0
2019-01-05T00:03:18.808Z,0
2019-01-05T00:04:28.952Z,0
2019-01-05T00:05:39.124Z,0
2019-01-05T00:06:49.285Z,0
2019-01-05T00:07:59.451Z,0
2019-01-05T00:09:09.612Z,0
2019-01-05T00:10:19.787Z,0
2019-01-05T00:11:29.951Z,0
2019-01-05T00:12:39.860Z,0
2019-01-05T00:13:50.057Z,0
2019-01-05T00:15:00.446Z,0
2019-01-05T00:16:10.610Z,0
2019-01-05T00:17:20.513Z,0
2019-01-05T00:18:30.646Z,0
2019-01-05T00:19:40.880Z,0
2019-01-05T00:20:51.023Z,0
2019-01-05T00:22:01.190Z,0
2019-01-05T00:23:11.365Z,0
2019-01-05T00:24:21.510Z,0
2019-01-05T00:25:31.636Z,0
2019-01-05T00:26:41.759Z,0
2019-01-05T00:27:51.892Z,0
2019-01-05T00:29:02.030Z,0
2019-01-05T00:30:12.181Z,0
2019-01-05T00:31:22.322Z,0
2019-01-05T00:32:32.493Z,0
2019-01-05T00:33:43.051Z,0
2019-01-05T00:34:53.265Z,0
2019-01-05T00:36:03.409Z,0
2019-01-05T00:37:13.530Z,0
2019-01-05T00:38:23.304Z,0
2019-01-05T00:39:33.450Z,0
2019-01-05T00:40:43.650Z,0
2019-01-05T00:41:53.763Z,0
2019-01-05T00:43:03.929Z,0
2019-01-05T00:44:14.059Z,0
2019-01-05T00:45:24.213Z,0
2019-01-05T00:46:34.089Z,0
2019-01-05T00:47:44.218Z,0
2019-01-05T00:48:54.370Z,0
2019-01-05T00:50:04.497Z,0
2019-01-05T00:51:14.620Z,0
2019-01-05T00:52:24.784Z,0
2019-01-05T00:53:34.581Z,0
2019-01-05T00:54:44.742Z,0
2019-01-05T00:55:54.879Z,0
2019-01-05T00:57:05.007Z,0
2019-01-05T00:58:15.148Z,0
2019-01-05T00:59:25.293Z,0
2019-01-05T01:00:35.445Z,0
2019-01-05T01:01:45.601Z,0
2019-01-05T01:02:55.746Z,0
2019-01-05T01:04:05.883Z,0
2019-01-05T01:05:16.002Z,0
2019-01-05T01:06:26.124Z,0
2019-01-05T01:07:36.268Z,0
2019-01-05T01:08:46.433Z,0
2019-01-05T01:09:56.583Z,0
2019-01-05T01:11:06.707Z,0
2019-01-05T01:12:16.618Z,0
2019-01-05T01:13:26.763Z,0
2019-01-05T01:14:36.871Z,0
2019-01-05T01:15:46.989Z,0
2019-01-05T01:16:57.110Z,0
2019-01-05T01:18:07.294Z,0
2019-01-05T01:19:17.164Z,0
2019-01-05T01:20:27.280Z,0
2019-01-05T01:21:37.398Z,0
2019-01-05T01:22:47.550Z,0
2019-01-05T01:23:57.705Z,0
2019-01-05T01:25:07.826Z,0
2019-01-05T01:26:17.966Z,0
2019-01-05T01:27:28.103Z,0
2019-01-05T01:28:38.210Z,0
2019-01-05T01:29:48.324Z,0
2019-01-05T01:30:58.458Z,0
2019-01-05T01:32:08.553Z,0
2019-01-05T01:33:18.668Z,0
2019-01-05T01:34:28.771Z,0
2019-01-05T01:35:38.898Z,0
2019-01-05T01:36:48.744Z,0
2019-01-05T01:37:58.862Z,0
2019-01-05T01:39:08.967Z,0
2019-01-05T01:40:19.100Z,0
2019-01-05T01:41:29.237Z,0
2019-01-05T01:42:39.341Z,0
2019-01-05T01:43:49.457Z,0
2019-01-05T01:44:59.562Z,0
2019-01-05T01:46:09.697Z,0
2019-01-05T01:47:19.791Z,0
2019-01-05T01:48:29.901Z,0
2019-01-05T01:49:40.025Z,0
2019-01-05T01:50:50.132Z,0
2019-01-05T01:52:00.252Z,0
2019-01-05T01:53:10.364Z,0
2019-01-05T01:54:20.472Z,0
2019-01-05T01:55:30.574Z,0
2019-01-05T01:56:40.729Z,0
2019-01-05T01:57:50.862Z,0
2019-01-05T01:59:00.964Z,0
2019-01-05T02:00:11.134Z,0
2019-01-05T02:01:21.296Z,0
2019-01-05T02:02:31.409Z,0
2019-01-05T02:03:41.270Z,0
2019-01-05T02:04:51.399Z,0
2019-01-05T02:06:01.526Z,0
2019-01-05T02:07:11.643Z,0
2019-01-05T02:08:21.770Z,0
2019-01-05T02:09:31.890Z,0
2019-01-05T02:10:42.014Z,0
2019-01-05T02:11:52.117Z,0
2019-01-05T02:13:02.220Z,0
2019-01-05T02:14:12.367Z,0
2019-01-05T02:15:22.492Z,0
2019-01-05T02:16:32.602Z,0
2019-01-05T02:17:43.704Z,0
2019-01-05T02:18:53.815Z,0
2019-01-05T02:20:03.924Z,0
2019-01-05T02:21:14.033Z,0
2019-01-05T02:22:23.872Z,0
2019-01-05T02:23:33.977Z,0
2019-01-05T02:24:44.089Z,0
2019-01-05T02:25:54.191Z,0
2019-01-05T02:27:04.051Z,0
2019-01-05T02:28:14.158Z,0
2019-01-05T02:29:24.026Z,0
2019-01-05T02:30:34.149Z,0
2019-01-05T02:31:44.268Z,0
2019-01-05T02:32:54.382Z,0
2019-01-05T02:34:04.490Z,0
2019-01-05T02:35:14.600Z,0
2019-01-05T02:36:24.711Z,0
2019-01-05T02:37:34.227Z,0
2019-01-05T02:38:44.339Z,0
2019-01-05T02:39:54.464Z,0
2019-01-05T02:41:04.327Z,0
2019-01-05T02:42:14.459Z,0
2019-01-05T02:43:24.609Z,0
2019-01-05T02:44:34.734Z,0
2019-01-05T02:45:44.980Z,0
2019-01-05T02:46:55.140Z,0
2019-01-05T02:48:05.259Z,0
2019-01-05T02:49:15.404Z,0
2019-01-05T02:50:25.520Z,0
2019-01-05T02:51:35.643Z,0
2019-01-05T02:52:45.768Z,0
2019-01-05T02:53:55.876Z,0
2019-01-05T02:55:06.009Z,0
2019-01-05T02:56:16.120Z,0
2019-01-05T02:57:26.230Z,0
2019-01-05T02:58:36.352Z,0
2019-01-05T02:59:46.456Z,0
2019-01-05T03:00:56.575Z,0
2019-01-05T03:02:06.428Z,0
2019-01-05T03:03:16.527Z,0
2019-01-05T03:04:26.796Z,0
2019-01-05T03:05:36.904Z,0
2019-01-05T03:06:47.010Z,0
2019-01-05T03:07:57.128Z,0
2019-01-05T03:09:07.255Z,0
2019-01-05T03:10:17.369Z,0
2019-01-05T03:11:27.138Z,0
2019-01-05T03:12:37.310Z,0
2019-01-05T03:13:47.422Z,0
2019-01-05T03:14:57.529Z,0
2019-01-05T03:16:07.625Z,0
2019-01-05T03:17:17.739Z,0
2019-01-05T03:18:27.852Z,0
2019-01-05T03:19:37.950Z,0
2019-01-05T03:20:48.063Z,0
2019-01-05T03:21:58.193Z,0
2019-01-05T03:23:08.329Z,0
2019-01-05T03:24:17.922Z,0
2019-01-05T03:25:28.089Z,0
2019-01-05T03:26:38.254Z,0
2019-01-05T03:27:48.392Z,0
2019-01-05T03:28:58.497Z,0
2019-01-05T03:30:08.620Z,0
2019-01-05T03:31:18.866Z,0
2019-01-05T03:32:29.043Z,0
2019-01-05T03:33:38.884Z,0
2019-01-05T03:34:49.002Z,0
2019-01-05T03:35:59.143Z,0
2019-01-05T03:37:09.455Z,0
2019-01-05T03:38:19.576Z,0
2019-01-05T03:39:29.338Z,0
2019-01-05T03:40:39.444Z,0
2019-01-05T03:41:49.577Z,0
2019-01-05T03:42:59.715Z,0
2019-01-05T03:44:09.827Z,0
2019-01-05T03:45:19.939Z,0
2019-01-05T03:46:30.053Z,0
2019-01-05T03:47:40.183Z,0
2019-01-05T03:48:50.290Z,0
2019-01-05T03:50:00.394Z,0
2019-01-05T03:51:10.493Z,0
2019-01-05T03:52:20.608Z,0
2019-01-05T03:53:30.691Z,0
2019-01-05T03:54:40.830Z,0
2019-01-05T03:55:51.031Z,0
2019-01-05T03:57:01.156Z,0
2019-01-05T03:58:11.273Z,0
2019-01-05T03:59:21.400Z,0
2019-01-05T04:00:31.532Z,0
2019-01-05T04:01:41.397Z,0
2019-01-05T04:02:51.491Z,0
2019-01-05T04:04:01.636Z,0
2019-01-05T04:05:11.789Z,0
2019-01-05T04:06:21.906Z,0
2019-01-05T04:07:32.032Z,0
2019-01-05T04:08:42.147Z,0
2019-01-05T04:09:52.255Z,0
2019-01-05T04:11:02.352Z,0
2019-01-05T04:12:12.486Z,0
2019-01-05T04:13:22.593Z,0
2019-01-05T04:14:32.459Z,0
2019-01-05T04:15:42.559Z,0
2019-01-05T04:16:52.785Z,0
2019-01-05T04:18:02.895Z,0
2019-01-05T04:19:12.998Z,0
2019-01-05T04:20:23.121Z,0
2019-01-05T04:21:33.237Z,0
2019-01-05T04:22:43.347Z,0
2019-01-05T04:23:53.461Z,0
2019-01-05T04:25:03.575Z,0
2019-01-05T04:26:13.694Z,0
2019-01-05T04:27:23.814Z,0
2019-01-05T04:28:33.920Z,0
2019-01-05T04:29:44.029Z,0
2019-01-05T04:30:54.129Z,0
2019-01-05T04:32:04.241Z,0
2019-01-05T04:33:14.352Z,0
2019-01-05T04:34:24.467Z,0
2019-01-05T04:35:34.575Z,0
2019-01-05T04:36:44.698Z,0
2019-01-05T04:37:54.817Z,0
2019-01-05T04:39:04.562Z,0
2019-01-05T04:40:14.677Z,0
2019-01-05T04:41:24.438Z,0
2019-01-05T04:42:34.567Z,0
2019-01-05T04:43:44.687Z,0
2019-01-05T04:44:54.800Z,0
2019-01-05T04:46:04.930Z,0
2019-01-05T04:47:14.800Z,0
2019-01-05T04:48:24.645Z,0
2019-01-05T04:49:34.813Z,0
2019-01-05T04:50:44.981Z,0
2019-01-05T04:51:55.096Z,0
2019-01-05T04:53:05.218Z,0
2019-01-05T04:54:15.332Z,0
2019-01-05T04:55:25.427Z,0
2019-01-05T04:56:35.531Z,0
2019-01-05T04:57:45.651Z,0
2019-01-05T04:58:55.760Z,0
2019-01-05T05:00:05.634Z,0
2019-01-05T05:01:15.736Z,0
2019-01-05T05:02:25.841Z,0
2019-01-05T05:03:35.973Z,0
2019-01-05T05:04:46.084Z,0
2019-01-05T05:05:55.835Z,0
2019-01-05T05:07:05.948Z,0
2019-01-05T05:08:16.071Z,0
2019-01-05T05:09:25.935Z,0
2019-01-05T05:10:36.067Z,0
2019-01-05T05:11:46.170Z,0
2019-01-05T05:12:56.274Z,0
2019-01-05T05:14:06.122Z,0
2019-01-05T05:15:16.232Z,0
2019-01-05T05:16:26.335Z,0
2019-01-05T05:17:36.466Z,0
2019-01-05T05:18:46.592Z,0
2019-01-05T05:19:56.722Z,0
2019-01-05T05:21:06.838Z,0
2019-01-05T05:22:17.076Z,0
2019-01-05T05:23:26.949Z,0
2019-01-05T05:24:36.796Z,0
2019-01-05T05:25:46.906Z,0
2019-01-05T05:26:57.030Z,0
2019-01-05T05:28:07.136Z,0
2019-01-05T05:29:17.258Z,0
2019-01-05T05:30:27.368Z,0
2019-01-05T05:31:37.235Z,0
2019-01-05T05:32:47.334Z,0
2019-01-05T05:33:57.443Z,0
2019-01-05T05:35:07.555Z,0
2019-01-05T05:36:17.654Z,0
2019-01-05T05:37:27.774Z,0
2019-01-05T05:38:37.898Z,0
2019-01-05T05:39:48.003Z,0
2019-01-05T05:40:58.101Z,0
2019-01-05T05:42:09.263Z,0
2019-01-05T05:43:19.358Z,0
2019-01-05T05:44:29.464Z,0
2019-01-05T05:45:39.588Z,0
2019-01-05T05:46:49.695Z,0
2019-01-05T05:47:59.811Z,0
2019-01-05T05:49:09.668Z,0
2019-01-05T05:50:19.778Z,0
2019-01-05T05:51:29.881Z,0
2019-01-05T05:52:40.004Z,0
2019-01-05T05:53:50.116Z,0
2019-01-05T05:55:00.219Z,0
2019-01-05T05:56:10.565Z,0
2019-01-05T05:57:20.685Z,0
2019-01-05T05:58:30.780Z,0
2019-01-05T05:59:40.898Z,0
2019-01-05T06:00:51.043Z,0
2019-01-05T06:02:01.145Z,0
2019-01-05T06:03:11.258Z,0
2019-01-05T06:04:21.374Z,0
2019-01-05T06:05:31.487Z,0
2019-01-05T06:06:41.336Z,0
2019-01-05T06:07:51.444Z,0
2019-01-05T06:09:01.541Z,0
2019-01-05T06:10:11.652Z,0
2019-01-05T06:11:21.787Z,0
2019-01-05T06:12:31.874Z,0
2019-01-05T06:13:42.000Z,0
2019-01-05T06:14:52.101Z,0
2019-01-05T06:16:01.955Z,0
2019-01-05T06:17:12.074Z,0
2019-01-05T06:18:21.938Z,0
2019-01-05T06:19:32.072Z,0
2019-01-05T06:20:42.176Z,0
2019-01-05T06:21:52.292Z,0
2019-01-05T06:23:02.173Z,0
2019-01-05T06:24:12.268Z,0
2019-01-05T06:25:22.405Z,0
2019-01-05T06:26:32.533Z,0
2019-01-05T06:27:42.627Z,0
2019-01-05T06:28:52.751Z,0
2019-01-05T06:30:02.863Z,0
2019-01-05T06:31:12.965Z,0
2019-01-05T06:32:23.072Z,0
2019-01-05T06:33:32.929Z,0
2019-01-05T06:34:43.047Z,0
2019-01-05T06:35:53.170Z,0
2019-01-05T06:37:03.285Z,0
2019-01-05T06:38:13.408Z,0
2019-01-05T06:39:23.524Z,0
2019-01-05T06:40:33.647Z,0
2019-01-05T06:41:43.748Z,0
2019-01-05T06:42:53.491Z,0
2019-01-05T06:44:03.621Z,0
2019-01-05T06:45:13.731Z,0
2019-01-05T06:46:23.861Z,0
2019-01-05T06:47:33.992Z,0
2019-01-05T06:48:44.124Z,0
2019-01-05T06:49:53.975Z,0
2019-01-05T06:51:03.720Z,0
2019-01-05T06:52:13.812Z,0
2019-01-05T06:53:23.664Z,0
2019-01-05T06:54:33.775Z,0
2019-01-05T06:55:44.110Z,0
2019-01-05T06:56:54.233Z,0
2019-01-05T06:58:04.353Z,0
2019-01-05T06:59:14.468Z,0
2019-01-05T07:00:24.566Z,0
2019-01-05T07:01:34.693Z,0
2019-01-05T07:02:44.806Z,0
2019-01-05T07:03:54.905Z,0
2019-01-05T07:05:05.023Z,0
2019-01-05T07:06:14.863Z,0
2019-01-05T07:07:24.958Z,0
2019-01-05T07:08:35.076Z,0
2019-01-05T07:09:44.936Z,0
2019-01-05T07:10:54.685Z,0
2019-01-05T07:12:04.811Z,0
2019-01-05T07:13:14.671Z,0
2019-01-05T07:14:24.779Z,0
2019-01-05T07:15:34.924Z,0
2019-01-05T07:16:45.045Z,0
2019-01-05T07:17:55.152Z,0
2019-01-05T07:19:05.266Z,0
2019-01-05T07:20:15.368Z,0
2019-01-05T07:21:25.495Z,0
2019-01-05T07:22:35.333Z,0
2019-01-05T07:23:45.465Z,0
2019-01-05T07:24:55.609Z,0
2019-01-05T07:26:05.715Z,0
2019-01-05T07:27:15.844Z,0
2019-01-05T07:28:25.939Z,0
2019-01-05T07:29:36.105Z,0
2019-01-05T07:30:45.959Z,0
2019-01-05T07:31:56.063Z,0
2019-01-05T07:33:06.161Z,0
2019-01-05T07:34:16.280Z,0
2019-01-05T07:35:26.454Z,0
2019-01-05T07:36:36.303Z,5
2019-01-05T07:37:46.166Z,5
2019-01-05T07:38:56.280Z,5
2019-01-05T07:40:06.400Z,5
2019-01-05T07:41:16.516Z,5
2019-01-05T07:42:26.631Z,5
2019-01-05T07:43:36.868Z,5
2019-01-05T07:44:46.996Z,5
2019-01-05T07:45:57.111Z,5
2019-01-05T07:47:07.244Z,10
2019-01-05T07:48:17.361Z,10
2019-01-05T07:49:27.712Z,10
2019-01-05T07:50:38.810Z,10
2019-01-05T07:51:48.928Z,10
2019-01-05T07:52:59.050Z,10
2019-01-05T07:54:09.148Z,15
2019-01-05T07:55:19.274Z,10
2019-01-05T07:56:29.371Z,10
2019-01-05T07:57:39.503Z,10
2019-01-05T07:58:49.636Z,10
2019-01-05T07:59:59.748Z,15
2019-01-05T08:01:09.856Z,15
2019-01-05T08:02:20.025Z,10
2019-01-05T08:03:30.242Z,15
2019-01-05T08:04:40.452Z,15
2019-01-05T08:05:50.585Z,15
2019-01-05T08:07:00.713Z,15
2019-01-05T08:08:10.815Z,15
2019-01-05T08:09:20.981Z,10
2019-01-05T08:10:30.848Z,15
2019-01-05T08:11:40.958Z,15
2019-01-05T08:12:51.061Z,15
2019-01-05T08:14:01.161Z,15
2019-01-05T08:15:11.369Z,15
2019-01-05T08:16:21.480Z,15
2019-01-05T08:17:31.592Z,15
2019-01-05T08:18:41.711Z,15
2019-01-05T08:19:51.833Z,15
2019-01-05T08:21:02.686Z,15
2019-01-05T08:22:12.802Z,15
2019-01-05T08:23:22.910Z,15
2019-01-05T08:24:33.027Z,20
2019-01-05T08:25:43.151Z,20
2019-01-05T08:26:53.322Z,20
2019-01-05T08:28:03.416Z,20
2019-01-05T08:29:13.552Z,20
2019-01-05T08:30:23.690Z,25
2019-01-05T08:31:33.805Z,20
2019-01-05T08:32:43.925Z,20
2019-01-05T08:33:54.037Z,20
2019-01-05T08:35:03.904Z,15
2019-01-05T08:36:14.025Z,15
2019-01-05T08:37:24.156Z,15
2019-01-05T08:38:34.274Z,15
2019-01-05T08:39:44.386Z,15
2019-01-05T08:40:54.510Z,15
2019-01-05T08:42:04.689Z,15
2019-01-05T08:43:14.826Z,15
2019-01-05T08:44:24.691Z,15
2019-01-05T08:45:34.812Z,15
2019-01-05T08:46:44.917Z,15
2019-01-05T08:47:54.785Z,20
2019-01-05T08:49:04.920Z,20
2019-01-05T08:50:15.038Z,15
2019-01-05T08:51:25.161Z,20
2019-01-05T08:52:35.277Z,20
2019-01-05T08:53:45.391Z,25
2019-01-05T08:54:55.704Z,25
2019-01-05T08:56:05.926Z,25
2019-01-05T08:57:15.535Z,30
2019-01-05T08:58:25.653Z,25
2019-01-05T08:59:35.781Z,30
2019-01-05T09:00:45.913Z,35
2019-01-05T09:01:55.784Z,35
2019-01-05T09:03:05.917Z,35
2019-01-05T09:04:16.025Z,35
2019-01-05T09:05:26.140Z,30
2019-01-05T09:06:36.408Z,30
2019-01-05T09:07:46.535Z,30
2019-01-05T09:08:56.661Z,25
2019-01-05T09:10:06.791Z,25
2019-01-05T09:11:16.932Z,25
2019-01-05T09:12:27.046Z,25
2019-01-05T09:13:37.172Z,25
2019-01-05T09:14:47.268Z,25
2019-01-05T09:15:57.400Z,25
2019-01-05T09:17:07.531Z,25
2019-01-05T09:18:17.656Z,25
2019-01-05T09:19:27.789Z,30
2019-01-05T09:20:37.905Z,30
2019-01-05T09:21:48.037Z,30
2019-01-05T09:22:58.160Z,35
2019-01-05T09:24:08.293Z,30
2019-01-05T09:25:18.059Z,30
2019-01-05T09:26:28.165Z,30
2019-01-05T09:27:38.356Z,30
2019-01-05T09:28:48.228Z,30
2019-01-05T09:29:58.360Z,35
2019-01-05T09:31:08.489Z,40
2019-01-05T09:32:18.612Z,40
2019-01-05T09:33:28.734Z,35
2019-01-05T09:34:38.853Z,40
2019-01-05T09:35:49.069Z,40
2019-01-05T09:36:59.179Z,40
2019-01-05T09:38:09.319Z,40
2019-01-05T09:39:19.432Z,45
2019-01-05T09:40:29.573Z,45
2019-01-05T09:41:39.684Z,40
2019-01-05T09:42:49.799Z,45
2019-01-05T09:43:59.923Z,55
2019-01-05T09:45:10.045Z,55
2019-01-05T09:46:20.147Z,55
2019-01-05T09:47:30.267Z,55
2019-01-05T09:48:40.397Z,50
2019-01-05T09:49:50.517Z,40
2019-01-05T09:51:00.668Z,50
2019-01-05T09:52:10.775Z,45
2019-01-05T09:53:20.906Z,45
2019-01-05T09:54:31.038Z,45
2019-01-05T09:55:41.202Z,40
2019-01-05T09:56:51.323Z,40
2019-01-05T09:58:00.965Z,40
2019-01-05T09:59:11.085Z,40
2019-01-05T10:00:21.200Z,50
2019-01-05T10:01:31.362Z,55
2019-01-05T10:02:41.226Z,70
2019-01-05T10:03:51.349Z,65
2019-01-05T10:05:01.506Z,55
2019-01-05T10:06:11.637Z,55
2019-01-05T10:07:21.789Z,60
2019-01-05T10:08:31.942Z,65
2019-01-05T10:09:42.260Z,70
2019-01-05T10:10:52.412Z,75
2019-01-05T10:12:02.573Z,70
2019-01-05T10:13:12.699Z,90
2019-01-05T10:14:23.069Z,95
2019-01-05T10:15:33.188Z,90
2019-01-05T10:16:43.065Z,85
2019-01-05T10:17:53.220Z,90
2019-01-05T10:19:03.365Z,110
2019-01-05T10:20:13.547Z,105
2019-01-05T10:21:23.691Z,95
2019-01-05T10:22:33.896Z,110
2019-01-05T10:23:44.023Z,105
2019-01-05T10:24:54.183Z,80
2019-01-05T10:26:04.300Z,90
2019-01-05T10:27:14.422Z,85
2019-01-05T10:28:24.595Z,75
2019-01-05T10:29:34.472Z,80
2019-01-05T10:30:44.634Z,85
2019-01-05T10:31:54.780Z,70
2019-01-05T10:33:04.686Z,80
2019-01-05T10:34:14.855Z,110
2019-01-05T10:35:25.968Z,95
2019-01-05T10:36:36.155Z,85
2019-01-05T10:37:46.314Z,85
2019-01-05T10:38:56.522Z,80
2019-01-05T10:40:06.646Z,90
2019-01-05T10:41:16.816Z,80
2019-01-05T10:42:26.983Z,70
2019-01-05T10:43:37.127Z,70
2019-01-05T10:44:47.251Z,70
2019-01-05T10:45:57.138Z,75
2019-01-05T10:47:07.018Z,90
2019-01-05T10:48:17.187Z,70
2019-01-05T10:49:27.103Z,95
2019-01-05T10:50:37.246Z,80
2019-01-05T10:51:47.379Z,90
2019-01-05T10:52:57.529Z,60
2019-01-05T10:54:07.684Z,60
2019-01-05T10:55:17.834Z,75
2019-01-05T10:56:27.985Z,75
2019-01-05T10:57:38.124Z,120
2019-01-05T10:58:48.279Z,90
2019-01-05T10:59:58.408Z,90
2019-01-05T11:01:08.558Z,125
2019-01-05T11:02:18.752Z,130
2019-01-05T11:03:28.920Z,100
2019-01-05T11:04:39.062Z,80
2019-01-05T11:05:49.281Z,70
2019-01-05T11:06:59.414Z,80
2019-01-05T11:08:09.589Z,65
2019-01-05T11:09:19.732Z,75
2019-01-05T11:10:29.884Z,65
2019-01-05T11:11:40.022Z,65
2019-01-05T11:12:50.148Z,95
2019-01-05T11:14:00.049Z,105
2019-01-05T11:15:10.194Z,100
2019-01-05T11:16:20.336Z,75
2019-01-05T11:17:30.476Z,55
2019-01-05T11:18:40.637Z,55
2019-01-05T11:19:50.792Z,45
2019-01-05T11:21:00.928Z,45
2019-01-05T11:22:11.085Z,55
2019-01-05T11:23:21.209Z,65
2019-01-05T11:24:31.107Z,105
2019-01-05T11:25:41.272Z,160
2019-01-05T11:26:51.434Z,70
2019-01-05T11:28:01.593Z,60
2019-01-05T11:29:11.770Z,55
2019-01-05T11:30:21.941Z,65
2019-01-05T11:31:32.244Z,85
2019-01-05T11:32:42.399Z,105
2019-01-05T11:33:52.558Z,160
2019-01-05T11:35:02.758Z,155
2019-01-05T11:36:12.923Z,90
2019-01-05T11:37:23.135Z,60
2019-01-05T11:38:33.373Z,50
2019-01-05T11:39:43.614Z,50
2019-01-05T11:40:53.785Z,50
2019-01-05T11:42:04.008Z,65
2019-01-05T11:43:14.201Z,65
2019-01-05T11:44:24.358Z,50
2019-01-05T11:45:34.499Z,55
2019-01-05T11:46:44.659Z,65
2019-01-05T11:47:54.851Z,65
2019-01-05T11:49:05.014Z,65
2019-01-05T11:50:15.222Z,55
2019-01-05T11:51:25.395Z,55
2019-01-05T11:52:35.609Z,65
2019-01-05T11:53:45.824Z,70
2019-01-05T11:54:56.025Z,65
2019-01-05T11:56:06.248Z,55
2019-01-05T11:57:16.371Z,70
2019-01-05T11:58:26.542Z,55
2019-01-05T11:59:36.685Z,55
2019-01-05T12:00:46.923Z,70
2019-01-05T12:01:57.098Z,85
2019-01-05T12:03:07.261Z,70
2019-01-05T12:04:17.394Z,100
2019-01-05T12:05:27.623Z,115
2019-01-05T12:06:37.778Z,90
2019-01-05T12:07:47.973Z,75
2019-01-05T12:08:58.141Z,90
2019-01-05T12:10:08.321Z,70
2019-01-05T12:11:18.263Z,50
2019-01-05T12:12:28.445Z,50
2019-01-05T12:13:38.574Z,55
2019-01-05T12:14:48.710Z,60
2019-01-05T12:15:58.875Z,50
2019-01-05T12:17:08.414Z,55
2019-01-05T12:18:18.553Z,55
2019-01-05T12:19:28.729Z,50
2019-01-05T12:20:38.873Z,50
2019-01-05T12:21:49.034Z,50
2019-01-05T12:22:59.159Z,60
2019-01-05T12:24:09.323Z,50
2019-01-05T12:25:19.478Z,55
2019-01-05T12:26:30.627Z,60
2019-01-05T12:27:41.740Z,50
2019-01-05T12:28:51.897Z,50
2019-01-05T12:30:02.076Z,60
2019-01-05T12:31:12.265Z,50
2019-01-05T12:32:22.438Z,55
2019-01-05T12:33:32.310Z,80
2019-01-05T12:34:42.201Z,95
2019-01-05T12:35:52.387Z,90
2019-01-05T12:37:02.543Z,90
2019-01-05T12:38:12.721Z,90
2019-01-05T12:39:22.933Z,90
2019-01-05T12:40:33.056Z,105
2019-01-05T12:41:43.236Z,100
2019-01-05T12:42:54.278Z,110
2019-01-05T12:44:04.452Z,130
2019-01-05T12:45:14.599Z,140
2019-01-05T12:46:24.721Z,145
2019-01-05T12:47:34.872Z,145
2019-01-05T12:48:45.037Z,175
2019-01-05T12:49:55.280Z,160
2019-01-05T12:51:05.450Z,125
2019-01-05T12:52:15.631Z,120
2019-01-05T12:53:25.803Z,140
2019-01-05T12:54:35.978Z,125
2019-01-05T12:55:46.135Z,120
2019-01-05T12:56:56.309Z,90
2019-01-05T12:58:06.123Z,70
2019-01-05T12:59:16.267Z,75
2019-01-05T13:00:26.431Z,80
2019-01-05T13:01:36.583Z,75
2019-01-05T13:02:46.768Z,75
2019-01-05T13:03:56.898Z,105
2019-01-05T13:05:07.086Z,105
2019-01-05T13:06:18.857Z,80
2019-01-05T13:07:29.025Z,60
2019-01-05T13:08:39.190Z,65
2019-01-05T13:09:49.362Z,65
2019-01-05T13:10:59.486Z,50
2019-01-05T13:12:09.855Z,60
2019-01-05T13:13:20.050Z,55
2019-01-05T13:14:30.306Z,50
2019-01-05T13:15:40.473Z,40
2019-01-05T13:16:56.840Z,30
2019-01-05T13:18:06.747Z,30
2019-01-05T13:19:16.918Z,30
2019-01-05T13:20:27.075Z,25
2019-01-05T13:21:37.267Z,25
2019-01-05T13:22:47.426Z,30
2019-01-05T13:23:57.553Z,30
2019-01-05T13:25:07.500Z,30
2019-01-05T13:26:19.087Z,25
2019-01-05T13:27:29.280Z,25
2019-01-05T13:28:39.652Z,25
2019-01-05T13:29:49.967Z,25
2019-01-05T13:31:00.144Z,20
2019-01-05T13:32:10.373Z,20
2019-01-05T13:33:20.513Z,15
2019-01-05T13:34:30.696Z,15
2019-01-05T13:35:40.872Z,10
2019-01-05T13:36:51.055Z,15
2019-01-05T13:38:01.203Z,15
2019-01-05T13:39:11.381Z,15
2019-01-05T13:40:21.583Z,10
2019-01-05T13:41:31.414Z,15
2019-01-05T13:42:41.291Z,15
2019-01-05T13:43:51.443Z,15
2019-01-05T13:45:01.592Z,10
2019-01-05T13:46:11.739Z,10
2019-01-05T13:47:21.913Z,10
2019-01-05T13:48:32.085Z,15
2019-01-05T13:49:42.246Z,15
2019-01-05T13:50:52.163Z,15
2019-01-05T13:52:02.317Z,15
2019-01-05T13:53:12.513Z,20
2019-01-05T13:54:22.694Z,15
2019-01-05T13:55:33.098Z,15
2019-01-05T13:56:43.035Z,15
2019-01-05T13:57:53.195Z,15
2019-01-05T13:59:02.765Z,15
2019-01-05T14:00:13.000Z,15
2019-01-05T14:01:23.174Z,15
2019-01-05T14:02:33.333Z,15
2019-01-05T14:03:43.511Z,10
2019-01-05T14:04:53.668Z,10
2019-01-05T14:06:03.817Z,10
2019-01-05T14:07:13.976Z,10
2019-01-05T14:08:23.912Z,10
2019-01-05T14:09:34.083Z,10
2019-01-05T14:10:44.511Z,10
2019-01-05T14:11:54.658Z,15
2019-01-05T14:13:04.559Z,15
2019-01-05T14:14:14.353Z,15
2019-01-05T14:15:24.516Z,15
2019-01-05T14:16:34.689Z,20
2019-01-05T14:17:45.324Z,15
2019-01-05T14:18:55.499Z,10
2019-01-05T14:20:11.614Z,10
2019-01-05T14:21:21.928Z,10
2019-01-05T14:22:31.863Z,10
2019-01-05T14:23:42.055Z,5
2019-01-05T14:24:52.189Z,5
2019-01-05T14:26:02.352Z,5
2019-01-05T14:27:12.508Z,10
2019-01-05T14:28:22.694Z,10
2019-01-05T14:29:32.877Z,10
2019-01-05T14:30:43.078Z,10
2019-01-05T14:31:53.250Z,10
2019-01-05T14:33:03.424Z,10
2019-01-05T14:34:13.619Z,5
2019-01-05T14:35:23.797Z,5
2019-01-05T14:36:33.992Z,5
2019-01-05T14:37:44.180Z,5
2019-01-05T14:38:54.348Z,5
2019-01-05T14:40:04.526Z,5
2019-01-05T14:41:14.697Z,5
2019-01-05T14:42:24.875Z,5
2019-01-05T14:43:35.032Z,5
2019-01-05T14:44:45.183Z,5
2019-01-05T14:45:55.365Z,5
2019-01-05T14:47:05.549Z,5
2019-01-05T14:48:15.735Z,0
2019-01-05T14:49:25.881Z,5
2019-01-05T14:50:36.007Z,5
2019-01-05T14:51:46.174Z,0
2019-01-05T14:52:56.328Z,5
2019-01-05T14:54:06.486Z,5
2019-01-05T14:55:16.662Z,5
2019-01-05T14:56:26.825Z,5
2019-01-05T14:57:36.727Z,5
2019-01-05T14:58:46.884Z,5
2019-01-05T14:59:57.019Z,0
2019-01-05T15:01:07.158Z,5
2019-01-05T15:02:17.066Z,0
2019-01-05T15:03:27.225Z,0
2019-01-05T15:04:37.479Z,0
2019-01-05T15:05:47.845Z,0
2019-01-05T15:06:58.567Z,0
2019-01-05T15:08:09.034Z,0
2019-01-05T15:09:19.450Z,0
2019-01-05T15:10:29.625Z,0
2019-01-05T15:11:40.696Z,0
2019-01-05T15:12:50.857Z,0
2019-01-05T15:14:01.024Z,0
2019-01-05T15:15:11.181Z,0
2019-01-05T15:16:21.315Z,0
2019-01-05T15:17:32.358Z,0
2019-01-05T15:18:42.607Z,0
2019-01-05T15:19:52.764Z,0
2019-01-05T15:21:03.152Z,0
2019-01-05T15:22:13.309Z,0
2019-01-05T15:23:23.462Z,0
2019-01-05T15:24:33.648Z,0
2019-01-05T15:25:43.566Z,0
2019-01-05T15:26:53.740Z,0
2019-01-05T15:28:03.903Z,0
2019-01-05T15:29:14.229Z,0
2019-01-05T15:30:24.384Z,0
2019-01-05T15:31:34.537Z,0
2019-01-05T15:32:44.698Z,0
2019-01-05T15:33:54.835Z,0
2019-01-05T15:35:05.013Z,0
2019-01-05T15:36:15.172Z,0
2019-01-05T15:37:25.366Z,0
2019-01-05T15:38:35.572Z,0
2019-01-05T15:39:45.730Z,0
2019-01-05T15:40:55.960Z,0
2019-01-05T15:42:06.107Z,0
2019-01-05T15:43:16.269Z,0
2019-01-05T15:44:26.442Z,0
2019-01-05T15:45:36.840Z,0
2019-01-05T15:46:52.244Z,0
2019-01-05T15:48:02.619Z,0
2019-01-05T15:49:12.783Z,0
2019-01-05T15:50:22.969Z,0
2019-01-05T15:51:33.173Z,0
2019-01-05T15:52:43.439Z,0
2019-01-05T15:53:53.610Z,0
2019-01-05T15:55:03.869Z,0
2019-01-05T15:56:13.774Z,0
2019-01-05T15:57:23.921Z,0
2019-01-05T15:58:34.087Z,0
2019-01-05T15:59:44.231Z,0
2019-01-05T16:00:54.410Z,0
2019-01-05T16:02:04.790Z,0
2019-01-05T16:03:14.945Z,0
2019-01-05T16:04:31.977Z,0
2019-01-05T16:05:42.128Z,0
2019-01-05T16:06:52.291Z,0
2019-01-05T16:08:03.678Z,0
2019-01-05T16:09:13.826Z,0
2019-01-05T16:10:24.361Z,0
2019-01-05T16:11:34.526Z,0
2019-01-05T16:12:45.050Z,0
2019-01-05T16:13:55.011Z,0
2019-01-05T16:15:05.252Z,0
2019-01-05T16:16:15.399Z,0
2019-01-05T16:17:25.543Z,0
2019-01-05T16:18:35.711Z,0
2019-01-05T16:19:46.091Z,0
2019-01-05T16:20:56.688Z,0
2019-01-05T16:22:06.653Z,0
2019-01-05T16:23:16.827Z,0
2019-01-05T16:24:26.991Z,0
2019-01-05T16:25:37.183Z,0
2019-01-05T16:26:47.335Z,0
2019-01-05T16:27:57.504Z,0
2019-01-05T16:29:07.707Z,0
2019-01-05T16:30:17.867Z,0
2019-01-05T16:31:28.038Z,0
2019-01-05T16:32:38.260Z,0
2019-01-05T16:33:49.638Z,0
2019-01-05T16:34:59.800Z,0
2019-01-05T16:36:09.976Z,0
2019-01-05T16:37:20.147Z,0
2019-01-05T16:38:30.304Z,0
2019-01-05T16:39:40.220Z,0
2019-01-05T16:40:50.406Z,0
2019-01-05T16:42:00.581Z,0
2019-01-05T16:43:10.759Z,0
2019-01-05T16:44:20.900Z,0
2019-01-05T16:45:31.077Z,0
2019-01-05T16:46:41.253Z,0
2019-01-05T16:47:51.205Z,0
2019-01-05T16:49:01.364Z,0
2019-01-05T16:50:11.513Z,0
2019-01-05T16:51:21.722Z,0
2019-01-05T16:52:32.829Z,0
2019-01-05T16:53:42.976Z,0
2019-01-05T16:54:53.176Z,0
2019-01-05T16:56:03.340Z,0
2019-01-05T16:57:13.528Z,0
2019-01-05T16:58:23.784Z,0
2019-01-05T16:59:33.982Z,0
2019-01-05T17:00:44.147Z,0
2019-01-05T17:01:54.492Z,0